Time;durP1;ratioP1;P1;durP2;ratioP2;P2;SDS_P1;SDS_P2;PMS_P1;PMS_P2;Temp;Humidity;BMP_temperature;BMP_pressure;BME280_temperature;BME280_humidity;BME280_pressure;Samples;Min_cycle;Max_cycle;Signal;HPM_P1;HPM_P2
2023/02/14 00:01:20;;;;;;;7.82;5.72;;;;;;;3.80;69.26;102169.69;4993454;28;20055;-62
2023/02/14 00:03:50;;;;;;;7.90;5.60;;;;;;;3.79;68.13;102170.78;4995065;28;20058;-63
2023/02/14 00:06:17;;;;;;;;;;;;;;;3.60;69.35;102162.47;4995697;28;20085;-63
2023/02/14 00:08:44;;;;;;;7.75;5.50;;;;;;;3.60;69.31;102173.47;4995105;28;19926;-62
2023/02/14 00:11:13;;;;;;;7.95;5.65;;;;;;;3.66;68.83;102178.09;4995255;28;20383;-62
2023/02/14 00:15:20;;;;;;;8.13;5.35;;;;;;;3.66;69.16;102169.81;4995154;28;20050;-62
2023/02/14 00:16:28;;;;;;;7.22;4.85;;;;;;;3.65;68.46;102170.03;4992341;28;20058;-62
2023/02/14 00:19:04;;;;;;;7.80;5.78;;;;;;;3.63;68.46;102166.66;4994334;28;20055;-62
2023/02/14 00:21:34;;;;;;;9.45;5.45;;;;;;;3.60;69.34;102167.97;4994986;28;20054;-62
2023/02/14 00:24:02;;;;;;;6.88;5.20;;;;;;;3.58;68.12;102172.88;4994682;28;20391;-62
2023/02/14 00:26:29;;;;;;;7.28;4.85;;;;;;;3.58;68.61;102172.88;4994637;28;20065;-62
2023/02/14 00:28:56;;;;;;;8.48;6.40;;;;;;;3.54;68.88;102171.63;4995262;28;20061;-62
2023/02/14 00:31:23;;;;;;;7.03;5.43;;;;;;;3.54;68.92;102174.38;4993218;28;20050;-62
2023/02/14 00:33:52;;;;;;;9.48;6.25;;;;;;;3.54;68.59;102162.53;4994833;28;20058;-62
2023/02/14 00:36:20;;;;;;;9.40;5.20;;;;;;;3.51;67.61;102174.84;4994729;28;20058;-62
2023/02/14 00:38:47;;;;;;;6.57;5.63;;;;;;;3.49;68.00;102168.72;4994803;28;20073;-62
2023/02/14 00:41:18;;;;;;;7.55;5.47;;;;;;;3.49;68.94;102174.22;4994853;28;20495;-62
2023/02/14 00:43:48;;;;;;;8.95;5.40;;;;;;;3.47;68.63;102173.63;4994769;28;20051;-61
2023/02/14 00:46:16;;;;;;;7.63;5.20;;;;;;;3.46;67.85;102177.41;4992323;28;20100;-62
2023/02/14 00:48:44;;;;;;;6.63;4.90;;;;;;;3.44;67.55;102183.19;4992059;28;20065;-63
2023/02/14 00:51:13;;;;;;;7.07;4.82;;;;;;;3.37;67.52;102173.28;4993652;28;20046;-62
2023/02/14 00:53:44;;;;;;;7.53;5.57;;;;;;;3.36;67.65;102177.94;4994013;28;20069;-61
2023/02/14 00:56:12;;;;;;;6.03;4.40;;;;;;;3.35;67.46;102180.91;4993873;28;20054;-61
2023/02/14 00:58:39;;;;;;;6.47;4.95;;;;;;;3.30;68.12;102177.97;4993776;28;20050;-62
2023/02/14 01:01:07;;;;;;;8.05;5.18;;;;;;;3.22;67.90;102182.69;4991645;28;20080;-61
2023/02/14 01:03:35;;;;;;;8.55;6.30;;;;;;;3.20;67.78;102187.59;4994299;28;20054;-61
2023/02/14 01:06:03;;;;;;;8.52;5.55;;;;;;;3.17;68.17;102185.28;4994132;28;20061;-61
2023/02/14 01:08:34;;;;;;;7.63;5.00;;;;;;;3.20;68.93;102190.34;4993862;28;20050;-60
2023/02/14 01:11:11;;;;;;;7.38;4.90;;;;;;;3.22;68.81;102190.13;4994101;28;20054;-62
2023/02/14 01:13:38;;;;;;;6.45;4.82;;;;;;;3.15;68.15;102187.41;4993785;28;20058;-61
2023/02/14 01:16:08;;;;;;;7.80;5.25;;;;;;;3.15;67.94;102187.41;4991734;28;20061;-61
2023/02/14 01:18:38;;;;;;;6.40;4.45;;;;;;;3.13;68.35;102185.94;4993969;28;20066;-61
2023/02/14 01:21:16;;;;;;;8.05;5.75;;;;;;;3.11;68.96;102183.41;4993849;28;20414;-62
2023/02/14 01:23:45;;;;;;;7.60;4.78;;;;;;;3.11;68.49;102186.19;4992425;28;20514;-62
2023/02/14 01:26:14;;;;;;;7.38;5.05;;;;;;;3.09;67.87;102182.81;4991469;28;20069;-62
2023/02/14 01:28:42;;;;;;;8.05;4.50;;;;;;;3.09;67.50;102185.56;4993070;28;20061;-62
2023/02/14 01:31:11;;;;;;;6.93;4.55;;;;;;;3.00;67.67;102184.09;4992236;28;20058;-62
2023/02/14 01:33:39;;;;;;;6.10;4.57;;;;;;;3.00;68.41;102184.97;4993904;28;20058;-62
2023/02/14 01:36:07;;;;;;;6.72;4.88;;;;;;;2.95;67.64;102189.44;4993208;28;20081;-62
2023/02/14 01:38:34;;;;;;;6.53;4.80;;;;;;;3.01;67.62;102180.31;4993677;28;20406;-62
2023/02/14 01:41:03;;;;;;;6.82;4.70;;;;;;;3.02;67.59;102176.47;4993222;28;20050;-61
2023/02/14 01:43:30;;;;;;;6.05;4.63;;;;;;;3.02;68.35;102170.97;4993561;28;20081;-62
2023/02/14 01:45:58;;;;;;;5.95;4.57;;;;;;;2.97;68.93;102182.66;4991469;28;20054;-62
2023/02/14 01:48:25;;;;;;;7.30;5.00;;;;;;;2.98;68.16;102176.09;4993509;28;20057;-62
2023/02/14 01:50:54;;;;;;;6.82;4.75;;;;;;;2.99;68.84;102171.44;4993279;28;20422;-62
2023/02/14 01:53:26;;;;;;;7.88;5.18;;;;;;;2.98;68.82;102180.75;4993571;28;20479;-62
2023/02/14 01:55:59;;;;;;;6.25;4.55;;;;;;;2.99;68.14;102177.78;4993358;28;20058;-62
2023/02/14 01:58:37;;;;;;;8.93;5.38;;;;;;;2.95;68.72;102176.53;4992504;28;20077;-62
2023/02/14 02:01:04;;;;;;;5.70;4.55;;;;;;;2.94;68.97;102172.09;4990163;28;20489;-62
2023/02/14 02:03:37;;;;;;;7.50;4.65;;;;;;;2.90;68.91;102170.84;4993062;28;20061;-62
2023/02/14 02:06:09;;;;;;;7.97;5.00;;;;;;;2.90;67.64;102170.84;4993209;28;20065;-61
2023/02/14 02:08:42;;;;;;;6.32;4.53;;;;;;;2.93;68.93;102167.66;4993130;28;20061;-62
2023/02/14 02:11:09;;;;;;;7.45;5.10;;;;;;;2.90;67.93;102162.59;4993088;28;20443;-61
2023/02/14 02:13:38;;;;;;;7.35;5.32;;;;;;;2.91;68.54;102157.94;4992997;28;20051;-62
2023/02/14 02:16:22;;;;;;;6.88;5.10;;;;;;;2.88;68.75;102161.09;4990142;28;20062;-62
2023/02/14 02:19:06;;;;;;;6.75;4.55;;;;;;;2.87;68.62;102163.03;4993476;28;20054;-62
2023/02/14 02:21:57;;;;;;;6.90;4.72;;;;;;;2.88;68.09;102159.22;4993117;28;20054;-61
2023/02/14 02:24:32;;;;;;;7.55;4.40;;;;;;;2.89;67.25;102160.06;4992769;28;20058;-62
2023/02/14 02:27:38;;;;;;;6.72;4.90;;;;;;;2.82;67.74;102158.19;4993426;28;20061;-62
2023/02/14 02:30:39;;;;;;;8.15;5.15;;;;;;;2.82;67.37;102157.34;4992194;28;20061;-62
2023/02/14 02:33:39;;;;;;;5.70;4.60;;;;;;;2.80;68.13;102151.22;4993137;28;20054;-62
2023/02/14 02:36:45;;;;;;;7.05;5.20;;;;;;;2.79;67.68;102153.16;4992991;28;20050;-61
2023/02/14 02:39:31;;;;;;;7.35;5.45;;;;;;;2.73;68.02;102144.91;4991754;28;20054;-62
2023/02/14 02:42:06;;;;;;;7.35;5.10;;;;;;;2.73;68.75;102145.78;4992610;28;20530;-62
2023/02/14 02:44:44;;;;;;;8.98;5.65;;;;;;;2.75;68.65;102138.13;4992837;28;20061;-61
2023/02/14 02:47:22;;;;;;;7.00;5.03;;;;;;;2.72;68.54;102140.47;4991311;28;20061;-62
2023/02/14 02:53:04;;;;;;;7.47;4.82;;;;;;;2.73;68.37;102140.28;4993951;28;20065;-62
2023/02/14 02:58:31;;;;;;;7.38;4.80;;;;;;;2.65;68.17;102140.53;4996373;28;20069;-62
2023/02/14 03:01:01;;;;;;;8.77;5.35;;;;;;;2.68;68.62;102141.97;4990156;28;20065;-62
2023/02/14 03:06:17;;;;;;;6.65;4.82;;;;;;;2.61;69.14;102142.03;4997324;28;20065;-61
2023/02/14 03:08:44;;;;;;;7.13;4.75;;;;;;;2.67;68.55;102146.66;4993565;28;20509;-62
2023/02/14 03:11:15;;;;;;;7.13;5.10;;;;;;;2.67;67.97;102143.91;4996146;28;20059;-61
2023/02/14 03:14:03;;;;;;;6.18;4.30;;;;;;;2.67;68.50;102143.91;4996236;28;20058;-62
2023/02/14 03:16:35;;;;;;;6.25;4.38;;;;;;;2.65;67.30;102132.28;4993367;28;20487;-62
2023/02/14 03:19:31;;;;;;;5.82;4.30;;;;;;;2.57;68.21;102127.03;4994145;28;20065;-64
2023/02/14 03:22:01;;;;;;;6.93;4.90;;;;;;;2.55;67.83;102130.00;4996433;28;20054;-62
2023/02/14 03:24:38;;;;;;;7.35;5.25;;;;;;;2.55;67.85;102134.66;4995916;28;20061;-62
2023/02/14 03:27:16;;;;;;;6.35;4.70;;;;;;;2.57;67.46;102127.84;4996191;28;20491;-62
2023/02/14 03:29:55;;;;;;;6.30;4.72;;;;;;;2.53;67.92;102134.03;4996337;28;20058;-62
2023/02/14 03:32:33;;;;;;;8.55;5.57;;;;;;;2.49;67.99;102127.28;4994577;28;20065;-62
2023/02/14 03:35:08;;;;;;;7.18;5.95;;;;;;;2.46;68.17;102128.56;4995994;28;20057;-62
2023/02/14 03:37:41;;;;;;;7.95;5.30;;;;;;;2.49;68.50;102127.28;4996426;28;20053;-62
2023/02/14 03:40:13;;;;;;;6.93;4.97;;;;;;;2.52;67.68;102133.19;4996001;28;20057;-62
2023/02/14 03:42:46;;;;;;;7.50;4.88;;;;;;;2.48;68.07;102129.19;4996232;28;20050;-61
2023/02/14 03:45:20;;;;;;;6.55;5.07;;;;;;;2.51;67.43;102125.16;4993950;28;20058;-61
2023/02/14 03:47:49;;;;;;;9.15;5.00;;;;;;;2.48;67.21;102120.06;4996089;28;20054;-61
2023/02/14 03:50:18;;;;;;;7.20;5.25;;;;;;;2.46;68.11;102120.31;4995653;28;20442;-62
2023/02/14 03:52:49;;;;;;;8.60;5.50;;;;;;;2.44;68.38;102131.53;4996102;28;20050;-62
2023/02/14 03:55:22;;;;;;;7.07;5.22;;;;;;;2.44;68.48;102126.03;4995559;28;20058;-62
2023/02/14 03:57:56;;;;;;;6.68;4.70;;;;;;;2.46;67.79;102130.44;4995406;28;20537;-61
2023/02/14 04:00:23;;;;;;;7.97;5.45;;;;;;;2.41;67.35;102115.44;4993839;28;20050;-61
2023/02/14 04:02:59;;;;;;;8.13;5.00;;;;;;;2.38;68.26;102121.41;4995469;28;20050;-62
2023/02/14 04:05:28;;;;;;;8.00;5.43;;;;;;;2.38;67.68;102118.66;4994890;28;20058;-62
2023/02/14 04:07:57;;;;;;;6.80;5.17;;;;;;;2.40;67.98;102118.44;4995291;28;20046;-62
2023/02/14 04:10:24;;;;;;;7.18;4.97;;;;;;;2.33;68.33;102115.72;4995326;28;20469;-61
2023/02/14 04:12:53;;;;;;;8.38;5.20;;;;;;;2.34;68.74;102111.06;4995368;28;20054;-62
2023/02/14 04:15:21;;;;;;;7.18;5.20;;;;;;;2.29;68.49;102106.22;4993162;28;20050;-62
2023/02/14 04:20:33;;;;;;;7.38;4.95;;;;;;;2.33;68.23;102103.88;5000552;28;20069;-61
2023/02/14 04:23:00;;;;;;;8.82;5.35;;;;;;;2.33;67.98;102107.47;4995140;28;20054;-62
2023/02/14 04:25:28;;;;;;;6.43;4.45;;;;;;;2.35;68.49;102113.59;4994630;28;20061;-61
2023/02/14 04:27:57;;;;;;;7.20;4.95;;;;;;;2.40;67.98;102118.44;4994974;28;20066;-62
2023/02/14 04:30:24;;;;;;;10.40;5.35;;;;;;;2.33;68.47;102109.38;4993283;28;20062;-61
2023/02/14 04:32:51;;;;;;;9.77;5.00;;;;;;;2.35;68.50;102116.34;4994727;28;20610;-62
2023/02/14 04:35:19;;;;;;;7.10;4.80;;;;;;;2.35;68.66;102108.09;4994569;28;20054;-61
2023/02/14 04:37:46;;;;;;;7.90;5.00;;;;;;;2.36;68.31;102109.78;4994858;28;20388;-62
2023/02/14 04:40:15;;;;;;;7.65;4.40;;;;;;;2.36;68.75;102107.03;4994756;28;20058;-62
2023/02/14 04:42:43;;;;;;;6.97;4.50;;;;;;;2.36;68.62;102109.78;4994970;28;20387;-62
2023/02/14 04:45:12;;;;;;;6.63;4.57;;;;;;;2.35;67.98;102099.84;4992026;28;20074;-62
2023/02/14 04:47:39;;;;;;;6.43;4.28;;;;;;;2.36;68.58;102096.03;4992771;28;20050;-62
2023/02/14 04:50:08;;;;;;;7.68;5.18;;;;;;;2.35;68.88;102099.84;4994830;28;20065;-62
2023/02/14 04:52:35;;;;;;;8.45;5.57;;;;;;;2.34;68.35;102095.41;4994836;28;20054;-62
2023/02/14 04:55:03;;;;;;;8.43;5.50;;;;;;;2.33;69.28;102090.97;4994624;28;20050;-62
2023/02/14 04:57:30;;;;;;;6.30;4.72;;;;;;;2.30;68.63;102090.56;4994724;28;20054;-62
2023/02/14 04:59:57;;;;;;;7.47;4.68;;;;;;;2.26;68.80;102081.91;4993157;28;20046;-62
2023/02/14 05:02:26;;;;;;;7.57;5.25;;;;;;;2.25;68.88;102077.47;4993951;28;20387;-62
2023/02/14 05:04:53;;;;;;;9.05;5.90;;;;;;;2.20;68.54;102074.53;4994002;28;20078;-62
2023/02/14 05:07:20;;;;;;;7.07;5.20;;;;;;;2.23;68.15;102076.84;4994628;28;20061;-62
2023/02/14 05:09:48;;;;;;;6.40;4.82;;;;;;;2.21;68.35;102078.97;4994444;28;20059;-61
2023/02/14 05:12:16;;;;;;;9.10;6.00;;;;;;;2.20;68.39;102074.53;4994479;28;20057;-62
2023/02/14 05:14:43;;;;;;;7.90;5.82;;;;;;;2.16;69.07;102068.66;4993922;28;20046;-62
2023/02/14 05:17:10;;;;;;;7.78;5.55;;;;;;;2.21;69.08;102068.81;4991294;28;20050;-62
2023/02/14 05:19:39;;;;;;;8.32;6.15;;;;;;;2.23;68.83;102063.13;4993256;28;20415;-61
2023/02/14 05:22:06;;;;;;;10.45;6.68;;;;;;;2.12;68.97;102066.53;4994101;28;20478;-61
2023/02/14 05:24:33;;;;;;;9.32;5.85;;;;;;;2.14;68.71;102065.28;4993674;28;20050;-61
2023/02/14 05:27:01;;;;;;;9.50;6.72;;;;;;;2.11;68.76;102054.69;4994011;28;20058;-61
2023/02/14 05:29:28;;;;;;;8.48;6.20;;;;;;;2.11;68.94;102053.88;4994010;28;20050;-61
2023/02/14 05:31:55;;;;;;;6.97;5.80;;;;;;;2.07;68.71;102058.13;4991737;28;20076;-61
2023/02/14 05:34:22;;;;;;;9.30;6.50;;;;;;;2.10;67.75;102054.91;4992262;28;20066;-61
2023/02/14 05:36:52;;;;;;;10.10;6.55;;;;;;;2.04;67.66;102056.66;4993834;28;20054;-61
2023/02/14 05:39:19;;;;;;;;;;;;;;;1.99;68.20;102061.94;4994141;28;20065;-61
2023/02/14 05:41:47;;;;;;;7.40;4.97;;;;;;;1.99;67.66;102053.69;4993534;28;19922;-61
2023/02/14 05:44:14;;;;;;;8.95;6.47;;;;;;;2.00;68.05;102056.25;4993785;28;20069;-61
2023/02/14 05:46:41;;;;;;;8.13;5.88;;;;;;;2.01;68.63;102059.81;4991654;28;20054;-60
2023/02/14 05:49:08;;;;;;;7.13;5.15;;;;;;;2.02;68.02;102062.34;4992425;28;20050;-60
2023/02/14 05:51:35;;;;;;;9.48;5.75;;;;;;;1.99;68.28;102051.78;4992707;28;20065;-61
2023/02/14 05:54:04;;;;;;;9.38;5.47;;;;;;;2.01;67.82;102060.66;4993866;28;20414;-61
2023/02/14 05:56:31;;;;;;;8.00;5.13;;;;;;;1.95;67.15;102060.69;4993443;28;20065;-61
2023/02/14 05:58:59;;;;;;;6.75;5.47;;;;;;;1.90;67.80;102066.84;4990388;28;20054;-61
2023/02/14 06:01:26;;;;;;;8.60;6.05;;;;;;;1.93;67.57;102060.94;4983671;28;21175;-61
2023/02/14 06:03:53;;;;;;;10.52;5.93;;;;;;;1.87;67.54;102061.81;4985423;28;20054;-61
2023/02/14 06:06:20;;;;;;;8.27;5.75;;;;;;;1.90;67.68;102058.59;4989803;28;20077;-61
2023/02/14 06:08:47;;;;;;;7.35;5.28;;;;;;;1.86;67.21;102059.25;4993518;28;20500;-61
2023/02/14 06:11:16;;;;;;;9.30;7.10;;;;;;;1.82;67.36;102061.59;4988504;28;20050;-62
2023/02/14 06:13:43;;;;;;;12.73;6.80;;;;;;;1.75;67.84;102061.63;4991682;28;20063;-62
2023/02/14 06:16:10;;;;;;;10.60;6.95;;;;;;;1.79;68.11;102062.03;4989537;28;20050;-61
2023/02/14 06:18:38;;;;;;;9.57;7.07;;;;;;;1.76;67.81;102063.28;4990652;28;20054;-61
2023/02/14 06:21:05;;;;;;;10.02;6.88;;;;;;;1.72;67.79;102067.56;4992258;28;20076;-61
2023/02/14 06:23:32;;;;;;;10.85;7.07;;;;;;;1.71;68.35;102076.00;4992318;28;20054;-60
2023/02/14 06:26:00;;;;;;;10.27;6.45;;;;;;;1.75;67.69;102066.28;4993025;28;20065;-62
2023/02/14 06:28:28;;;;;;;10.18;6.93;;;;;;;1.73;67.73;102074.72;4992587;28;20438;-62
2023/02/14 06:30:56;;;;;;;10.27;6.55;;;;;;;1.75;67.70;102078.09;4991820;28;20057;-61
2023/02/14 06:33:23;;;;;;;11.30;7.32;;;;;;;1.83;67.94;102085.28;4991390;28;20062;-62
2023/02/14 06:35:50;;;;;;;12.10;7.38;;;;;;;1.77;67.87;102086.13;4993016;28;20061;-62
2023/02/14 06:38:17;;;;;;;9.45;6.90;;;;;;;1.80;67.45;102086.53;4993345;28;20514;-62
2023/02/14 06:40:45;;;;;;;10.13;6.97;;;;;;;1.81;67.66;102077.25;4990718;28;20050;-60
2023/02/14 06:43:12;;;;;;;9.85;6.20;;;;;;;1.75;68.30;102083.59;4992266;28;20063;-61
2023/02/14 06:45:42;;;;;;;9.13;5.88;;;;;;;1.83;67.33;102082.53;4998680;28;20376;-61
2023/02/14 06:48:09;;;;;;;;;;;;;;;1.64;67.87;102076.03;4994151;28;20054;-62
2023/02/14 06:50:37;;;;;;;11.35;6.13;;;;;;;1.70;67.53;102079.78;4995755;28;19929;-61
2023/02/14 06:53:05;;;;;;;8.77;5.70;;;;;;;1.78;67.95;102082.31;4994535;28;20054;-62
2023/02/14 06:55:32;;;;;;;12.23;6.88;;;;;;;1.79;67.71;102087.59;4996621;28;20077;-62
2023/02/14 06:57:59;;;;;;;10.02;6.55;;;;;;;1.81;67.95;102088.22;4995647;28;20057;-63
2023/02/14 07:00:26;;;;;;;9.88;7.20;;;;;;;1.79;67.92;102092.25;4994602;28;20059;-62
2023/02/14 07:02:55;;;;;;;9.82;6.70;;;;;;;1.85;68.21;102090.53;4993397;28;20538;-62
2023/02/14 07:05:22;;;;;;;12.20;7.78;;;;;;;1.91;68.54;102082.28;4994297;28;20050;-62
2023/02/14 07:07:49;;;;;;;10.50;7.72;;;;;;;1.96;68.30;102087.13;4995258;28;20065;-62
2023/02/14 07:10:17;;;;;;;11.60;8.50;;;;;;;2.04;67.80;102086.88;4995202;28;20058;-62
2023/02/14 07:12:44;;;;;;;10.00;7.13;;;;;;;2.63;67.00;102096.72;4995676;28;20506;-61
2023/02/14 07:15:13;;;;;;;8.27;6.93;;;;;;;3.11;66.84;102094.44;4995324;28;20051;-62
2023/02/14 07:17:40;;;;;;;8.77;6.93;;;;;;;3.30;64.79;102095.34;4994505;28;20046;-62
2023/02/14 07:20:10;;;;;;;9.52;6.78;;;;;;;3.55;64.92;102089.81;4995426;28;20054;-62
2023/02/14 07:22:38;;;;;;;;;;;;;;;4.74;62.85;102095.75;4996984;28;20490;-62
2023/02/14 07:25:06;;;;;;;8.57;5.93;;;;;;;6.33;59.63;102090.34;4989169;28;19929;-62
2023/02/14 07:27:35;;;;;;;7.90;6.00;;;;;;;7.56;55.54;102085.03;4992723;28;20372;-61
2023/02/14 07:30:05;;;;;;;6.20;4.88;;;;;;;9.07;53.37;102079.88;4982289;28;20058;-62
2023/02/14 07:32:34;;;;;;;9.32;5.60;;;;;;;10.08;49.98;102075.25;4994167;28;20054;-61
2023/02/14 07:35:04;;;;;;;6.43;4.50;;;;;;;10.80;46.82;102075.47;4995044;28;20042;-61
2023/02/14 07:37:34;;;;;;;7.15;5.22;;;;;;;11.17;45.17;102077.16;4995411;28;20499;-62
2023/02/14 07:40:04;;;;;;;7.95;6.22;;;;;;;10.61;43.96;102075.16;4995795;28;20522;-60
2023/02/14 07:42:32;;;;;;;6.03;4.90;;;;;;;9.72;45.60;102069.50;4995890;28;20061;-61
2023/02/14 07:45:01;;;;;;;9.23;5.55;;;;;;;8.57;49.39;102069.97;4995106;28;20443;-60
2023/02/14 07:47:29;;;;;;;7.15;5.00;;;;;;;9.88;46.45;102072.34;4994097;28;20070;-61
2023/02/14 07:49:58;;;;;;;6.43;4.93;;;;;;;11.01;44.45;102069.94;4995583;28;20050;-62
2023/02/14 07:52:26;;;;;;;4.90;4.38;;;;;;;12.50;42.06;102064.81;4995468;28;20511;-60
2023/02/14 07:54:56;;;;;;;7.40;4.30;;;;;;;11.70;43.51;102066.50;4995505;28;20065;-61
2023/02/14 07:57:25;;;;;;;6.00;5.25;;;;;;;11.98;42.84;102069.81;4995382;28;20050;-61
2023/02/14 07:59:53;;;;;;;14.38;10.60;;;;;;;13.63;39.94;102061.13;4995283;28;20050;-61
2023/02/14 08:02:21;;;;;;;9.32;7.75;;;;;;;14.82;37.53;102059.31;4994294;28;20062;-60
2023/02/14 08:04:50;;;;;;;9.65;7.45;;;;;;;14.84;37.13;102059.84;4995700;28;20499;-61
2023/02/14 08:07:19;;;;;;;14.23;9.77;;;;;;;14.37;36.37;102053.22;4995661;28;20065;-60
2023/02/14 08:09:47;;;;;;;10.43;8.55;;;;;;;14.84;35.89;102053.41;4997976;28;20054;-60
2023/02/14 08:17:44;;;;;;;7.38;6.13;;;;;;;17.67;32.40;102055.50;4992955;28;20057;-61
2023/02/14 08:20:13;;;;;;;6.45;5.40;;;;;;;17.23;33.60;102049.63;4995054;28;20050;-60
2023/02/14 08:22:42;;;;;;;5.70;4.30;;;;;;;19.21;31.18;102048.84;4995660;28;20062;-65
2023/02/14 08:25:10;;;;;;;6.00;5.40;;;;;;;20.78;28.79;102045.28;4994986;28;20054;-61
2023/02/14 08:27:38;;;;;;;7.00;6.20;;;;;;;21.81;27.11;102044.56;4995461;28;20061;-60
2023/02/14 08:30:07;;;;;;;8.55;7.43;;;;;;;22.80;26.00;102047.31;4994858;28;20057;-61
2023/02/14 08:32:34;;;;;;;7.32;5.78;;;;;;;23.62;25.07;102037.44;4994335;28;20061;-61
2023/02/14 08:35:01;;;;;;;7.63;6.63;;;;;;;24.30;24.33;102039.19;4993948;28;20046;-61
2023/02/14 08:37:29;;;;;;;7.70;6.68;;;;;;;24.70;23.15;102033.19;4991784;28;20046;-65
2023/02/14 08:39:57;;;;;;;9.18;8.10;;;;;;;25.40;22.74;102037.06;4995529;28;20050;-60
2023/02/14 08:42:24;;;;;;;8.60;7.53;;;;;;;26.01;22.13;102040.22;4995052;28;20050;-60
2023/02/14 08:44:53;;;;;;;11.63;10.43;;;;;;;26.73;21.51;102036.38;4994539;28;20053;-60
2023/02/14 08:47:20;;;;;;;8.88;7.65;;;;;;;27.27;20.60;102034.22;4993776;28;20054;-60
2023/02/14 08:49:47;;;;;;;8.75;7.32;;;;;;;27.63;20.44;102029.66;4993304;28;20065;-60
2023/02/14 08:52:14;;;;;;;8.35;7.05;;;;;;;28.57;19.13;102031.25;4994509;28;20058;-60
2023/02/14 08:54:42;;;;;;;7.47;6.68;;;;;;;28.36;19.54;102036.81;4994223;28;20054;-60
2023/02/14 08:57:09;;;;;;;8.50;7.20;;;;;;;29.41;18.39;102030.34;4994671;28;20403;-60
2023/02/14 08:59:36;;;;;;;8.07;7.38;;;;;;;29.71;18.90;102029.97;4994381;28;20054;-60
2023/02/14 09:02:05;;;;;;;8.95;6.88;;;;;;;29.87;19.18;102033.28;4993113;28;20057;-61
2023/02/14 09:04:34;;;;;;;8.48;7.30;;;;;;;30.12;18.33;102029.56;4994254;28;20050;-61
2023/02/14 09:07:03;;;;;;;9.40;8.50;;;;;;;30.58;18.70;102025.78;4994330;28;20480;-60
2023/02/14 09:09:31;;;;;;;10.55;8.38;;;;;;;30.76;18.58;102019.97;4994711;28;20061;-60
2023/02/14 09:11:58;;;;;;;9.00;7.97;;;;;;;31.51;17.52;102021.66;4993789;28;20054;-60
2023/02/14 09:14:26;;;;;;;9.73;7.80;;;;;;;32.13;16.92;102017.06;4994101;28;20069;-60
2023/02/14 09:16:53;;;;;;;9.13;6.90;;;;;;;32.69;16.47;102025.50;4993190;28;20054;-61
2023/02/14 09:19:21;;;;;;;9.18;8.23;;;;;;;33.06;16.20;102018.00;4993783;28;20065;-61
2023/02/14 09:21:49;;;;;;;7.72;6.90;;;;;;;33.26;16.31;102015.28;4994289;28;20054;-61
2023/02/14 09:24:16;;;;;;;10.70;8.65;;;;;;;33.75;15.50;102022.34;4993641;28;20499;-62
2023/02/14 09:26:43;;;;;;;8.63;7.82;;;;;;;34.06;15.76;102013.56;4993677;28;20069;-61
2023/02/14 09:29:12;;;;;;;8.80;7.22;;;;;;;34.28;15.42;102016.88;4993610;28;20064;-62
2023/02/14 09:31:39;;;;;;;9.50;6.80;;;;;;;34.70;15.52;102004.91;5000234;28;20061;-62
2023/02/14 09:36:52;;;;;;;9.75;7.72;;;;;;;35.44;14.88;102003.66;4977492;28;20396;-66
2023/02/14 09:39:20;;;;;;;13.32;10.35;;;;;;;36.12;14.75;101996.09;4973908;28;20062;-66
2023/02/14 09:42:14;;;;;;;10.30;9.40;;;;;;;36.61;13.23;101987.28;4974347;28;20059;-62
2023/02/14 09:44:46;;;;;;;10.68;9.63;;;;;;;37.25;13.41;101983.69;4974014;28;20081;-62
2023/02/14 09:47:22;;;;;;;10.70;9.60;;;;;;;37.70;13.37;101989.25;4989045;28;20057;-62
2023/02/14 09:49:54;;;;;;;8.90;8.05;;;;;;;38.06;13.06;101984.31;5010545;28;20421;-62
2023/02/14 09:52:31;;;;;;;8.35;7.55;;;;;;;38.76;12.67;101985.81;5013383;28;20061;-62
2023/02/14 09:55:01;;;;;;;7.85;6.70;;;;;;;38.78;12.93;101971.56;5013110;28;20060;-62
2023/02/14 09:57:38;;;;;;;7.15;6.45;;;;;;;39.41;12.35;101973.69;5012806;28;20430;-60
2023/02/14 10:00:17;;;;;;;7.82;7.03;;;;;;;39.66;12.42;101975.53;5005677;28;20106;-62
2023/02/14 10:02:56;;;;;;;8.68;7.75;;;;;;;40.04;12.28;101968.47;4993606;28;20065;-66
2023/02/14 10:05:26;;;;;;;9.93;8.90;;;;;;;40.15;12.37;101965.88;4993089;28;20058;-66
2023/02/14 10:08:04;;;;;;;9.65;8.70;;;;;;;40.68;11.74;101968.44;4992841;28;20070;-66
2023/02/14 10:10:37;;;;;;;10.80;9.80;;;;;;;40.56;12.01;101960.66;4993305;28;20059;-63
2023/02/14 10:13:12;;;;;;;9.93;9.05;;;;;;;41.02;11.39;101969.31;4992079;28;20054;-64
2023/02/14 10:15:43;;;;;;;11.07;10.07;;;;;;;41.64;11.43;101972.94;4991633;28;20050;-62
2023/02/14 10:18:14;;;;;;;11.70;10.60;;;;;;;41.99;10.81;101965.19;4992353;28;20073;-63
2023/02/14 10:20:45;;;;;;;7.90;6.63;;;;;;;42.32;10.75;101961.34;4993155;28;20054;-63
2023/02/14 10:23:27;;;;;;;7.82;7.13;;;;;;;42.68;10.47;101949.78;4992891;28;20051;-63
2023/02/14 10:25:59;;;;;;;9.38;8.57;;;;;;;43.09;10.62;101958.72;4992809;28;20058;-63
2023/02/14 10:28:31;;;;;;;7.60;6.85;;;;;;;43.77;9.90;101946.69;4993484;28;20058;-62
2023/02/14 10:31:15;;;;;;;6.90;6.15;;;;;;;44.22;9.91;101946.44;4994128;28;20046;-63
2023/02/14 10:33:49;;;;;;;8.20;7.40;;;;;;;44.40;9.65;101951.16;4993438;28;20058;-63
2023/02/14 10:36:31;;;;;;;8.18;7.43;;;;;;;44.98;9.63;101943.19;4992925;28;20430;-63
2023/02/14 10:39:07;;;;;;;6.53;5.93;;;;;;;45.40;9.28;101945.88;4993119;28;20388;-63
2023/02/14 10:41:47;;;;;;;6.85;5.82;;;;;;;45.72;8.70;101935.63;4993401;28;20050;-62
2023/02/14 10:44:32;;;;;;;6.57;5.97;;;;;;;45.84;8.88;101936.44;4993294;28;20427;-62
2023/02/14 10:47:05;;;;;;;8.25;5.47;;;;;;;46.12;8.55;101933.63;4991677;28;20046;-63
2023/02/14 10:49:42;;;;;;;6.78;6.07;;;;;;;46.46;8.17;101938.81;4993286;28;20050;-62
2023/02/14 10:52:17;;;;;;;6.22;5.63;;;;;;;46.61;8.32;101936.38;4992804;28;20055;-62
2023/02/14 10:54:53;;;;;;;5.35;4.80;;;;;;;47.10;7.96;101928.03;4994417;28;20509;-62
2023/02/14 10:57:26;;;;;;;6.47;5.95;;;;;;;47.56;8.16;101929.56;4992988;28;20136;-62
2023/02/14 10:59:57;;;;;;;6.38;5.80;;;;;;;47.74;7.91;101930.31;4994403;28;20050;-63
2023/02/14 11:02:31;;;;;;;6.57;6.05;;;;;;;48.22;7.47;101931.94;5003576;28;20050;-62
2023/02/14 11:04:59;;;;;;;6.10;5.60;;;;;;;47.97;7.88;101925.91;5012417;28;20064;-63
2023/02/14 11:07:26;;;;;;;6.20;5.60;;;;;;;48.66;7.37;101929.19;5011955;28;20304;-62
2023/02/14 11:09:55;;;;;;;6.53;4.78;;;;;;;48.86;7.49;101913.16;5012467;28;20058;-63
2023/02/14 11:12:36;;;;;;;6.13;4.78;;;;;;;49.13;7.11;101917.22;4990400;28;20051;-62
2023/02/14 11:15:19;;;;;;;5.07;4.20;;;;;;;49.27;7.11;101915.97;4991957;28;20058;-62
2023/02/14 11:17:46;;;;;;;4.50;4.10;;;;;;;49.51;7.24;101915.16;4992571;28;20459;-61
2023/02/14 11:20:26;;;;;;;4.82;4.35;;;;;;;50.25;6.64;101909.00;4992518;28;20065;-61
2023/02/14 11:22:53;;;;;;;6.70;3.97;;;;;;;50.21;6.82;101899.63;4992455;28;20077;-62
2023/02/14 11:25:27;;;;;;;6.05;4.13;;;;;;;50.92;6.38;101895.19;4992066;28;20057;-62
2023/02/14 11:27:59;;;;;;;3.80;3.15;;;;;;;50.98;6.52;101892.13;4991601;28;20407;-62
2023/02/14 11:30:31;;;;;;;7.05;4.28;;;;;;;50.96;6.23;101885.94;4990638;28;20057;-62
2023/02/14 11:32:58;;;;;;;4.07;3.00;;;;;;;50.91;6.09;101880.94;4994151;28;20475;-62
2023/02/14 11:35:32;;;;;;;4.70;3.38;;;;;;;50.59;6.00;101881.75;4994785;28;20047;-62
2023/02/14 11:38:01;;;;;;;3.70;3.30;;;;;;;51.34;5.36;101882.78;4995955;28;20050;-61
2023/02/14 11:40:32;;;;;;;3.45;3.13;;;;;;;51.16;5.47;101872.63;4993974;28;20054;-62
2023/02/14 11:43:01;;;;;;;3.75;3.03;;;;;;;50.58;6.10;101861.59;4994277;28;20395;-62
2023/02/14 11:45:32;;;;;;;3.80;2.97;;;;;;;50.42;6.17;101854.56;4994594;28;20054;-61
2023/02/14 11:48:18;;;;;;;3.53;3.22;;;;;;;50.73;5.79;101855.88;4995958;28;20051;-61
2023/02/14 11:50:55;;;;;;;3.58;3.28;;;;;;;50.98;5.67;101847.59;4996214;28;20050;-62
2023/02/14 11:53:25;;;;;;;3.55;3.25;;;;;;;51.01;5.95;101846.44;4995737;28;20077;-62
2023/02/14 11:55:57;;;;;;;3.63;3.17;;;;;;;51.59;5.57;101840.94;4995751;28;20054;-62
2023/02/14 11:58:32;;;;;;;3.30;3.00;;;;;;;51.20;5.64;101837.44;4995012;28;20062;-61
2023/02/14 12:01:00;;;;;;;3.63;3.10;;;;;;;51.05;5.52;101835.03;4994435;28;20423;-61
2023/02/14 12:03:29;;;;;;;3.13;2.83;;;;;;;49.99;5.93;101837.75;4995504;28;20054;-62
2023/02/14 12:05:59;;;;;;;3.15;2.95;;;;;;;50.35;5.46;101830.13;4995245;28;20081;-61
2023/02/14 12:08:30;;;;;;;3.35;2.90;;;;;;;49.95;5.69;101824.03;4995699;28;20058;-62